sensor_id;sensor_type;location;lat;lon;timestamp;temperature;humidity
65038;DHT22;51605;47.040;15.294;2023-12-20T00:01:35;20.50;47.80
65038;DHT22;51605;47.040;15.294;2023-12-20T00:04:02;20.50;47.80
65038;DHT22;51605;47.040;15.294;2023-12-20T00:06:27;20.50;47.80
65038;DHT22;51605;47.040;15.294;2023-12-20T00:08:53;20.50;47.70
65038;DHT22;51605;47.040;15.294;2023-12-20T00:11:19;20.50;47.70
65038;DHT22;51605;47.040;15.294;2023-12-20T00:13:44;20.50;47.70
65038;DHT22;51605;47.040;15.294;2023-12-20T00:16:10;20.50;47.70
65038;DHT22;51605;47.040;15.294;2023-12-20T00:18:35;20.50;47.80
65038;DHT22;51605;47.040;15.294;2023-12-20T00:21:01;20.50;47.70
65038;DHT22;51605;47.040;15.294;2023-12-20T00:23:27;20.50;47.70
65038;DHT22;51605;47.040;15.294;2023-12-20T00:25:52;20.40;47.70
65038;DHT22;51605;47.040;15.294;2023-12-20T00:28:18;20.50;47.80
65038;DHT22;51605;47.040;15.294;2023-12-20T00:30:44;20.50;47.80
65038;DHT22;51605;47.040;15.294;2023-12-20T00:33:10;20.50;47.80
65038;DHT22;51605;47.040;15.294;2023-12-20T00:35:35;20.50;47.80
65038;DHT22;51605;47.040;15.294;2023-12-20T00:38:01;20.50;47.70
65038;DHT22;51605;47.040;15.294;2023-12-20T00:40:27;20.50;47.70
65038;DHT22;51605;47.040;15.294;2023-12-20T00:42:53;20.50;47.70
65038;DHT22;51605;47.040;15.294;2023-12-20T00:45:18;20.50;47.70
65038;DHT22;51605;47.040;15.294;2023-12-20T00:47:45;20.50;47.70
65038;DHT22;51605;47.040;15.294;2023-12-20T00:50:11;20.50;47.70
65038;DHT22;51605;47.040;15.294;2023-12-20T00:52:36;20.50;47.70
65038;DHT22;51605;47.040;15.294;2023-12-20T00:55:02;20.50;47.70
65038;DHT22;51605;47.040;15.294;2023-12-20T00:57:29;20.50;47.70
65038;DHT22;51605;47.040;15.294;2023-12-20T00:59:55;20.50;47.70
65038;DHT22;51605;47.040;15.294;2023-12-20T01:02:20;20.50;47.70
65038;DHT22;51605;47.040;15.294;2023-12-20T01:04:46;20.50;47.70
65038;DHT22;51605;47.040;15.294;2023-12-20T01:07:12;20.50;47.70
65038;DHT22;51605;47.040;15.294;2023-12-20T01:09:38;20.50;47.70
65038;DHT22;51605;47.040;15.294;2023-12-20T01:12:03;20.50;47.80
65038;DHT22;51605;47.040;15.294;2023-12-20T01:14:29;20.50;47.70
65038;DHT22;51605;47.040;15.294;2023-12-20T01:16:55;20.50;47.70
65038;DHT22;51605;47.040;15.294;2023-12-20T01:19:20;20.50;47.70
65038;DHT22;51605;47.040;15.294;2023-12-20T01:21:46;20.50;47.80
65038;DHT22;51605;47.040;15.294;2023-12-20T01:24:12;20.50;47.70
65038;DHT22;51605;47.040;15.294;2023-12-20T01:26:38;20.50;47.70
65038;DHT22;51605;47.040;15.294;2023-12-20T01:29:03;20.50;47.70
65038;DHT22;51605;47.040;15.294;2023-12-20T01:31:29;20.50;47.70
65038;DHT22;51605;47.040;15.294;2023-12-20T01:33:55;20.50;47.70
65038;DHT22;51605;47.040;15.294;2023-12-20T01:36:21;20.50;47.70
65038;DHT22;51605;47.040;15.294;2023-12-20T01:38:46;20.50;47.70
65038;DHT22;51605;47.040;15.294;2023-12-20T01:41:12;20.50;47.70
65038;DHT22;51605;47.040;15.294;2023-12-20T01:43:38;20.50;47.70
65038;DHT22;51605;47.040;15.294;2023-12-20T01:46:04;20.50;47.70
65038;DHT22;51605;47.040;15.294;2023-12-20T01:48:30;20.50;47.70
65038;DHT22;51605;47.040;15.294;2023-12-20T01:50:59;20.50;47.70
65038;DHT22;51605;47.040;15.294;2023-12-20T01:53:27;20.50;47.70
65038;DHT22;51605;47.040;15.294;2023-12-20T01:55:56;20.50;47.70
65038;DHT22;51605;47.040;15.294;2023-12-20T01:58:24;20.50;47.70
65038;DHT22;51605;47.040;15.294;2023-12-20T02:00:51;20.50;47.70
65038;DHT22;51605;47.040;15.294;2023-12-20T02:03:17;20.50;47.70
65038;DHT22;51605;47.040;15.294;2023-12-20T02:05:44;20.50;47.70
65038;DHT22;51605;47.040;15.294;2023-12-20T02:08:09;20.50;47.70
65038;DHT22;51605;47.040;15.294;2023-12-20T02:10:35;20.50;47.60
65038;DHT22;51605;47.040;15.294;2023-12-20T02:13:01;20.50;47.70
65038;DHT22;51605;47.040;15.294;2023-12-20T02:15:27;20.50;47.70
65038;DHT22;51605;47.040;15.294;2023-12-20T02:17:53;20.50;47.60
65038;DHT22;51605;47.040;15.294;2023-12-20T02:20:19;20.50;47.70
65038;DHT22;51605;47.040;15.294;2023-12-20T02:22:45;20.50;47.60
65038;DHT22;51605;47.040;15.294;2023-12-20T02:25:11;20.50;47.60
65038;DHT22;51605;47.040;15.294;2023-12-20T02:27:36;20.50;47.60
65038;DHT22;51605;47.040;15.294;2023-12-20T02:30:02;20.50;47.60
65038;DHT22;51605;47.040;15.294;2023-12-20T02:32:28;20.50;47.70
65038;DHT22;51605;47.040;15.294;2023-12-20T02:34:54;20.50;47.70
65038;DHT22;51605;47.040;15.294;2023-12-20T02:37:20;20.40;47.50
65038;DHT22;51605;47.040;15.294;2023-12-20T02:39:46;20.50;47.60
65038;DHT22;51605;47.040;15.294;2023-12-20T02:42:12;20.50;48.60
65038;DHT22;51605;47.040;15.294;2023-12-20T02:44:38;20.50;47.60
65038;DHT22;51605;47.040;15.294;2023-12-20T02:47:03;20.50;47.60
65038;DHT22;51605;47.040;15.294;2023-12-20T02:49:29;20.50;47.60
65038;DHT22;51605;47.040;15.294;2023-12-20T02:51:54;20.50;47.60
65038;DHT22;51605;47.040;15.294;2023-12-20T02:54:20;20.50;47.60
65038;DHT22;51605;47.040;15.294;2023-12-20T02:56:47;20.50;47.60
65038;DHT22;51605;47.040;15.294;2023-12-20T02:59:12;20.50;47.60
65038;DHT22;51605;47.040;15.294;2023-12-20T03:01:47;20.50;47.60
65038;DHT22;51605;47.040;15.294;2023-12-20T03:04:12;20.40;47.50
65038;DHT22;51605;47.040;15.294;2023-12-20T03:06:38;20.50;47.60
65038;DHT22;51605;47.040;15.294;2023-12-20T03:09:04;20.50;47.50
65038;DHT22;51605;47.040;15.294;2023-12-20T03:11:30;20.50;47.60
65038;DHT22;51605;47.040;15.294;2023-12-20T03:13:56;20.50;47.60
65038;DHT22;51605;47.040;15.294;2023-12-20T03:16:23;20.50;47.60
65038;DHT22;51605;47.040;15.294;2023-12-20T03:18:48;20.50;47.60
65038;DHT22;51605;47.040;15.294;2023-12-20T03:21:14;20.50;47.70
65038;DHT22;51605;47.040;15.294;2023-12-20T03:23:40;20.50;47.60
65038;DHT22;51605;47.040;15.294;2023-12-20T03:26:09;20.50;48.60
65038;DHT22;51605;47.040;15.294;2023-12-20T03:28:36;20.50;47.70
65038;DHT22;51605;47.040;15.294;2023-12-20T03:31:02;20.50;47.60
65038;DHT22;51605;47.040;15.294;2023-12-20T03:33:28;20.50;47.60
65038;DHT22;51605;47.040;15.294;2023-12-20T03:35:53;20.50;47.70
65038;DHT22;51605;47.040;15.294;2023-12-20T03:38:19;20.50;47.60
65038;DHT22;51605;47.040;15.294;2023-12-20T03:40:45;20.50;47.60
65038;DHT22;51605;47.040;15.294;2023-12-20T03:43:10;20.50;47.60
65038;DHT22;51605;47.040;15.294;2023-12-20T03:45:36;20.50;47.60
65038;DHT22;51605;47.040;15.294;2023-12-20T03:48:02;20.50;47.60
65038;DHT22;51605;47.040;15.294;2023-12-20T03:50:29;20.50;47.60
65038;DHT22;51605;47.040;15.294;2023-12-20T03:52:54;20.50;47.70
65038;DHT22;51605;47.040;15.294;2023-12-20T03:55:20;20.50;47.60
65038;DHT22;51605;47.040;15.294;2023-12-20T03:57:46;20.50;47.60
65038;DHT22;51605;47.040;15.294;2023-12-20T04:00:12;20.50;47.60
65038;DHT22;51605;47.040;15.294;2023-12-20T04:02:38;20.50;47.60
65038;DHT22;51605;47.040;15.294;2023-12-20T04:05:05;20.50;47.70
65038;DHT22;51605;47.040;15.294;2023-12-20T04:07:31;20.50;47.60
65038;DHT22;51605;47.040;15.294;2023-12-20T04:09:57;20.50;47.60
65038;DHT22;51605;47.040;15.294;2023-12-20T04:12:23;20.50;47.60
65038;DHT22;51605;47.040;15.294;2023-12-20T04:14:49;20.50;47.60
65038;DHT22;51605;47.040;15.294;2023-12-20T04:17:18;20.50;47.60
65038;DHT22;51605;47.040;15.294;2023-12-20T04:19:43;20.50;47.50
65038;DHT22;51605;47.040;15.294;2023-12-20T04:22:09;20.50;47.60
65038;DHT22;51605;47.040;15.294;2023-12-20T04:24:35;20.50;47.80
65038;DHT22;51605;47.040;15.294;2023-12-20T04:27:01;20.50;47.60
65038;DHT22;51605;47.040;15.294;2023-12-20T04:29:27;20.50;47.60
65038;DHT22;51605;47.040;15.294;2023-12-20T04:31:52;20.50;47.60
65038;DHT22;51605;47.040;15.294;2023-12-20T04:34:18;20.50;47.60
65038;DHT22;51605;47.040;15.294;2023-12-20T04:36:44;20.50;47.60
65038;DHT22;51605;47.040;15.294;2023-12-20T04:39:11;20.50;47.60
65038;DHT22;51605;47.040;15.294;2023-12-20T04:41:37;20.50;47.60
65038;DHT22;51605;47.040;15.294;2023-12-20T04:44:03;20.40;47.50
65038;DHT22;51605;47.040;15.294;2023-12-20T04:46:28;20.50;47.60
65038;DHT22;51605;47.040;15.294;2023-12-20T04:48:54;20.40;47.60
65038;DHT22;51605;47.040;15.294;2023-12-20T04:51:20;20.50;47.60
65038;DHT22;51605;47.040;15.294;2023-12-20T04:53:45;20.50;47.60
65038;DHT22;51605;47.040;15.294;2023-12-20T04:56:11;20.50;47.60
65038;DHT22;51605;47.040;15.294;2023-12-20T04:58:37;20.50;47.60
65038;DHT22;51605;47.040;15.294;2023-12-20T05:01:05;20.50;47.60
65038;DHT22;51605;47.040;15.294;2023-12-20T05:03:31;20.50;48.60
65038;DHT22;51605;47.040;15.294;2023-12-20T05:05:57;20.50;47.60
65038;DHT22;51605;47.040;15.294;2023-12-20T05:08:22;20.50;47.60
65038;DHT22;51605;47.040;15.294;2023-12-20T05:10:48;20.50;47.60
65038;DHT22;51605;47.040;15.294;2023-12-20T05:13:14;20.40;47.50
65038;DHT22;51605;47.040;15.294;2023-12-20T05:15:40;20.40;47.70
65038;DHT22;51605;47.040;15.294;2023-12-20T05:18:06;20.40;47.60
65038;DHT22;51605;47.040;15.294;2023-12-20T05:20:32;20.40;47.60
65038;DHT22;51605;47.040;15.294;2023-12-20T05:22:57;20.50;47.60
65038;DHT22;51605;47.040;15.294;2023-12-20T05:25:23;20.40;47.60
65038;DHT22;51605;47.040;15.294;2023-12-20T05:27:49;20.40;47.60
65038;DHT22;51605;47.040;15.294;2023-12-20T05:30:15;20.40;47.60
65038;DHT22;51605;47.040;15.294;2023-12-20T05:32:40;20.50;47.60
65038;DHT22;51605;47.040;15.294;2023-12-20T05:35:06;20.50;47.60
65038;DHT22;51605;47.040;15.294;2023-12-20T05:37:32;20.40;47.50
65038;DHT22;51605;47.040;15.294;2023-12-20T05:39:58;20.40;47.60
65038;DHT22;51605;47.040;15.294;2023-12-20T05:42:24;20.50;47.60
65038;DHT22;51605;47.040;15.294;2023-12-20T05:44:49;20.40;47.60
65038;DHT22;51605;47.040;15.294;2023-12-20T05:47:15;20.50;47.70
65038;DHT22;51605;47.040;15.294;2023-12-20T05:49:41;20.50;47.70
65038;DHT22;51605;47.040;15.294;2023-12-20T05:52:06;20.50;47.60
65038;DHT22;51605;47.040;15.294;2023-12-20T05:54:32;20.50;47.60
65038;DHT22;51605;47.040;15.294;2023-12-20T05:56:57;20.50;47.60
65038;DHT22;51605;47.040;15.294;2023-12-20T05:59:23;20.50;47.70
65038;DHT22;51605;47.040;15.294;2023-12-20T06:01:49;20.50;47.70
65038;DHT22;51605;47.040;15.294;2023-12-20T06:04:14;20.40;47.60
65038;DHT22;51605;47.040;15.294;2023-12-20T06:06:41;20.50;47.70
65038;DHT22;51605;47.040;15.294;2023-12-20T06:09:07;20.50;47.80
65038;DHT22;51605;47.040;15.294;2023-12-20T06:11:33;20.40;47.70
65038;DHT22;51605;47.040;15.294;2023-12-20T06:13:59;20.40;47.60
65038;DHT22;51605;47.040;15.294;2023-12-20T06:16:24;20.50;47.60
65038;DHT22;51605;47.040;15.294;2023-12-20T06:18:50;20.50;47.70
65038;DHT22;51605;47.040;15.294;2023-12-20T06:21:16;20.40;47.70
65038;DHT22;51605;47.040;15.294;2023-12-20T06:23:41;20.40;47.70
65038;DHT22;51605;47.040;15.294;2023-12-20T06:26:07;20.40;47.80
65038;DHT22;51605;47.040;15.294;2023-12-20T06:28:33;20.40;47.80
65038;DHT22;51605;47.040;15.294;2023-12-20T06:30:59;20.40;47.80
65038;DHT22;51605;47.040;15.294;2023-12-20T06:33:26;20.40;47.80
65038;DHT22;51605;47.040;15.294;2023-12-20T06:35:52;20.40;47.70
65038;DHT22;51605;47.040;15.294;2023-12-20T06:38:19;20.40;47.60
65038;DHT22;51605;47.040;15.294;2023-12-20T06:40:45;20.40;47.60
65038;DHT22;51605;47.040;15.294;2023-12-20T06:43:11;20.40;47.60
65038;DHT22;51605;47.040;15.294;2023-12-20T06:45:37;20.40;47.60
65038;DHT22;51605;47.040;15.294;2023-12-20T06:48:03;20.40;47.60
65038;DHT22;51605;47.040;15.294;2023-12-20T06:50:29;20.40;47.70
65038;DHT22;51605;47.040;15.294;2023-12-20T06:52:54;20.40;47.60
65038;DHT22;51605;47.040;15.294;2023-12-20T06:55:20;20.40;47.60
65038;DHT22;51605;47.040;15.294;2023-12-20T06:57:46;20.40;47.60
65038;DHT22;51605;47.040;15.294;2023-12-20T07:00:12;20.40;47.70
65038;DHT22;51605;47.040;15.294;2023-12-20T07:02:37;20.40;47.70
65038;DHT22;51605;47.040;15.294;2023-12-20T07:05:04;20.40;47.70
65038;DHT22;51605;47.040;15.294;2023-12-20T07:07:30;20.40;47.70
65038;DHT22;51605;47.040;15.294;2023-12-20T07:09:56;20.40;47.80
65038;DHT22;51605;47.040;15.294;2023-12-20T07:12:21;20.40;47.80
65038;DHT22;51605;47.040;15.294;2023-12-20T07:14:47;20.40;47.70
65038;DHT22;51605;47.040;15.294;2023-12-20T07:17:13;20.40;47.70
65038;DHT22;51605;47.040;15.294;2023-12-20T07:19:40;20.50;47.70
65038;DHT22;51605;47.040;15.294;2023-12-20T07:22:07;20.50;47.70
65038;DHT22;51605;47.040;15.294;2023-12-20T07:24:33;20.50;47.70
65038;DHT22;51605;47.040;15.294;2023-12-20T07:27:02;20.40;47.70
65038;DHT22;51605;47.040;15.294;2023-12-20T07:29:27;20.40;47.70
65038;DHT22;51605;47.040;15.294;2023-12-20T07:31:53;20.40;47.70
65038;DHT22;51605;47.040;15.294;2023-12-20T07:34:20;20.50;47.70
65038;DHT22;51605;47.040;15.294;2023-12-20T07:36:46;20.40;47.80
65038;DHT22;51605;47.040;15.294;2023-12-20T07:39:12;20.40;47.70
65038;DHT22;51605;47.040;15.294;2023-12-20T07:41:38;20.40;47.70
65038;DHT22;51605;47.040;15.294;2023-12-20T07:44:04;20.40;47.70
65038;DHT22;51605;47.040;15.294;2023-12-20T07:46:30;20.40;47.70
65038;DHT22;51605;47.040;15.294;2023-12-20T07:48:56;20.40;47.60
65038;DHT22;51605;47.040;15.294;2023-12-20T07:51:22;20.50;47.60
65038;DHT22;51605;47.040;15.294;2023-12-20T07:53:48;20.40;47.50
65038;DHT22;51605;47.040;15.294;2023-12-20T07:58:40;20.40;47.40
65038;DHT22;51605;47.040;15.294;2023-12-20T08:01:06;20.40;47.40
65038;DHT22;51605;47.040;15.294;2023-12-20T08:03:32;20.40;47.30
65038;DHT22;51605;47.040;15.294;2023-12-20T08:05:57;20.40;47.30
65038;DHT22;51605;47.040;15.294;2023-12-20T08:08:24;20.40;46.90
65038;DHT22;51605;47.040;15.294;2023-12-20T08:10:50;20.40;46.80
65038;DHT22;51605;47.040;15.294;2023-12-20T08:13:16;20.50;46.80
65038;DHT22;51605;47.040;15.294;2023-12-20T08:15:41;20.50;46.90
65038;DHT22;51605;47.040;15.294;2023-12-20T08:18:07;20.40;46.90
65038;DHT22;51605;47.040;15.294;2023-12-20T08:20:33;20.40;47.00
65038;DHT22;51605;47.040;15.294;2023-12-20T08:22:58;20.40;47.00
65038;DHT22;51605;47.040;15.294;2023-12-20T08:25:24;20.40;47.00
65038;DHT22;51605;47.040;15.294;2023-12-20T08:27:50;20.40;48.00
65038;DHT22;51605;47.040;15.294;2023-12-20T08:30:15;20.40;47.20
65038;DHT22;51605;47.040;15.294;2023-12-20T08:32:46;20.40;47.20
65038;DHT22;51605;47.040;15.294;2023-12-20T08:35:11;20.40;47.10
65038;DHT22;51605;47.040;15.294;2023-12-20T08:37:37;20.40;47.20
65038;DHT22;51605;47.040;15.294;2023-12-20T08:40:03;20.40;47.20
65038;DHT22;51605;47.040;15.294;2023-12-20T08:42:28;20.40;47.10
65038;DHT22;51605;47.040;15.294;2023-12-20T08:45:00;20.40;47.20
65038;DHT22;51605;47.040;15.294;2023-12-20T08:47:25;20.40;47.10
65038;DHT22;51605;47.040;15.294;2023-12-20T08:49:51;20.40;47.10
65038;DHT22;51605;47.040;15.294;2023-12-20T08:52:24;20.40;47.20
65038;DHT22;51605;47.040;15.294;2023-12-20T08:54:50;20.40;47.20
65038;DHT22;51605;47.040;15.294;2023-12-20T08:57:37;20.40;47.20
65038;DHT22;51605;47.040;15.294;2023-12-20T09:00:03;20.40;47.20
65038;DHT22;51605;47.040;15.294;2023-12-20T09:02:29;20.40;47.20
65038;DHT22;51605;47.040;15.294;2023-12-20T09:04:55;20.40;47.20
65038;DHT22;51605;47.040;15.294;2023-12-20T09:07:24;20.40;47.10
65038;DHT22;51605;47.040;15.294;2023-12-20T09:09:50;20.40;47.20
65038;DHT22;51605;47.040;15.294;2023-12-20T09:12:18;20.40;47.20
65038;DHT22;51605;47.040;15.294;2023-12-20T09:14:46;20.40;47.20
65038;DHT22;51605;47.040;15.294;2023-12-20T09:17:12;20.40;47.10
65038;DHT22;51605;47.040;15.294;2023-12-20T09:19:38;20.40;47.10
65038;DHT22;51605;47.040;15.294;2023-12-20T09:22:04;20.40;47.10
65038;DHT22;51605;47.040;15.294;2023-12-20T09:24:30;20.50;47.30
65038;DHT22;51605;47.040;15.294;2023-12-20T09:26:56;20.50;47.10
65038;DHT22;51605;47.040;15.294;2023-12-20T09:29:23;20.40;47.10
65038;DHT22;51605;47.040;15.294;2023-12-20T09:31:48;20.50;47.20
65038;DHT22;51605;47.040;15.294;2023-12-20T09:34:16;20.50;47.10
65038;DHT22;51605;47.040;15.294;2023-12-20T09:36:42;20.50;47.20
65038;DHT22;51605;47.040;15.294;2023-12-20T09:39:13;20.50;47.10
65038;DHT22;51605;47.040;15.294;2023-12-20T09:41:43;20.50;47.10
65038;DHT22;51605;47.040;15.294;2023-12-20T09:44:14;20.50;47.10
65038;DHT22;51605;47.040;15.294;2023-12-20T09:46:44;20.50;47.10
65038;DHT22;51605;47.040;15.294;2023-12-20T09:49:10;20.50;47.20
65038;DHT22;51605;47.040;15.294;2023-12-20T09:51:36;20.50;47.10
65038;DHT22;51605;47.040;15.294;2023-12-20T09:54:05;20.50;47.10
65038;DHT22;51605;47.040;15.294;2023-12-20T09:56:31;20.50;47.10
65038;DHT22;51605;47.040;15.294;2023-12-20T09:58:57;20.50;47.10
65038;DHT22;51605;47.040;15.294;2023-12-20T10:01:24;20.50;47.10
65038;DHT22;51605;47.040;15.294;2023-12-20T10:03:54;20.50;47.10
65038;DHT22;51605;47.040;15.294;2023-12-20T10:06:23;20.50;47.10
65038;DHT22;51605;47.040;15.294;2023-12-20T10:08:49;20.50;47.00
65038;DHT22;51605;47.040;15.294;2023-12-20T10:11:15;20.50;47.10
65038;DHT22;51605;47.040;15.294;2023-12-20T10:13:41;20.50;47.20
65038;DHT22;51605;47.040;15.294;2023-12-20T10:16:07;20.50;47.30
65038;DHT22;51605;47.040;15.294;2023-12-20T10:18:33;20.50;47.30
65038;DHT22;51605;47.040;15.294;2023-12-20T10:21:00;20.50;47.20
65038;DHT22;51605;47.040;15.294;2023-12-20T10:23:26;20.50;48.20
65038;DHT22;51605;47.040;15.294;2023-12-20T10:25:58;20.50;47.20
65038;DHT22;51605;47.040;15.294;2023-12-20T10:28:24;20.50;47.30
65038;DHT22;51605;47.040;15.294;2023-12-20T10:30:53;20.50;47.30
65038;DHT22;51605;47.040;15.294;2023-12-20T10:33:29;20.50;47.30
65038;DHT22;51605;47.040;15.294;2023-12-20T10:35:56;20.50;47.40
65038;DHT22;51605;47.040;15.294;2023-12-20T10:38:21;20.50;47.40
65038;DHT22;51605;47.040;15.294;2023-12-20T10:40:47;20.50;47.40
65038;DHT22;51605;47.040;15.294;2023-12-20T10:43:15;20.50;47.50
65038;DHT22;51605;47.040;15.294;2023-12-20T10:45:42;20.50;47.40
65038;DHT22;51605;47.040;15.294;2023-12-20T10:48:10;20.50;47.30
65038;DHT22;51605;47.040;15.294;2023-12-20T10:50:41;20.50;47.30
65038;DHT22;51605;47.040;15.294;2023-12-20T10:53:07;20.50;47.40
65038;DHT22;51605;47.040;15.294;2023-12-20T10:55:33;20.50;47.40
65038;DHT22;51605;47.040;15.294;2023-12-20T10:58:07;20.50;47.40
65038;DHT22;51605;47.040;15.294;2023-12-20T11:00:44;20.50;47.30
65038;DHT22;51605;47.040;15.294;2023-12-20T11:03:12;20.50;47.40
65038;DHT22;51605;47.040;15.294;2023-12-20T11:08:43;20.50;47.40
65038;DHT22;51605;47.040;15.294;2023-12-20T11:11:27;20.50;47.50
65038;DHT22;51605;47.040;15.294;2023-12-20T11:14:07;20.50;48.40
65038;DHT22;51605;47.040;15.294;2023-12-20T11:16:37;20.50;47.50
65038;DHT22;51605;47.040;15.294;2023-12-20T11:19:06;20.40;47.40
65038;DHT22;51605;47.040;15.294;2023-12-20T11:21:32;20.50;47.50
65038;DHT22;51605;47.040;15.294;2023-12-20T11:23:59;20.50;47.60
65038;DHT22;51605;47.040;15.294;2023-12-20T11:26:28;20.50;47.60
65038;DHT22;51605;47.040;15.294;2023-12-20T11:29:19;20.50;47.60
65038;DHT22;51605;47.040;15.294;2023-12-20T11:31:43;20.50;47.60
65038;DHT22;51605;47.040;15.294;2023-12-20T11:34:21;20.50;47.50
65038;DHT22;51605;47.040;15.294;2023-12-20T11:36:47;20.50;47.60
65038;DHT22;51605;47.040;15.294;2023-12-20T11:39:20;20.50;47.50
65038;DHT22;51605;47.040;15.294;2023-12-20T11:41:46;20.50;47.60
65038;DHT22;51605;47.040;15.294;2023-12-20T11:44:17;20.50;47.60
65038;DHT22;51605;47.040;15.294;2023-12-20T11:46:42;20.50;47.60
65038;DHT22;51605;47.040;15.294;2023-12-20T11:49:09;20.50;47.70
65038;DHT22;51605;47.040;15.294;2023-12-20T11:51:35;20.50;47.70
65038;DHT22;51605;47.040;15.294;2023-12-20T11:54:00;20.50;47.60
65038;DHT22;51605;47.040;15.294;2023-12-20T11:56:26;20.50;47.70
65038;DHT22;51605;47.040;15.294;2023-12-20T11:58:52;20.50;47.70
65038;DHT22;51605;47.040;15.294;2023-12-20T12:01:19;20.50;47.60
65038;DHT22;51605;47.040;15.294;2023-12-20T12:03:46;20.50;47.60
65038;DHT22;51605;47.040;15.294;2023-12-20T12:06:12;20.50;47.60
65038;DHT22;51605;47.040;15.294;2023-12-20T12:08:38;20.50;47.60
65038;DHT22;51605;47.040;15.294;2023-12-20T12:11:04;20.50;47.60
65038;DHT22;51605;47.040;15.294;2023-12-20T12:13:30;20.50;47.60
65038;DHT22;51605;47.040;15.294;2023-12-20T12:15:55;20.50;47.70
65038;DHT22;51605;47.040;15.294;2023-12-20T12:18:21;20.50;47.70
65038;DHT22;51605;47.040;15.294;2023-12-20T12:20:47;20.50;47.70
65038;DHT22;51605;47.040;15.294;2023-12-20T12:23:12;20.50;47.70
65038;DHT22;51605;47.040;15.294;2023-12-20T12:25:38;20.50;47.70
65038;DHT22;51605;47.040;15.294;2023-12-20T12:28:04;20.50;47.70
65038;DHT22;51605;47.040;15.294;2023-12-20T12:30:30;20.50;47.70
65038;DHT22;51605;47.040;15.294;2023-12-20T12:32:56;20.40;47.60
65038;DHT22;51605;47.040;15.294;2023-12-20T12:35:23;20.50;47.70
65038;DHT22;51605;47.040;15.294;2023-12-20T12:37:49;20.50;47.60
65038;DHT22;51605;47.040;15.294;2023-12-20T12:40:17;20.50;47.60
65038;DHT22;51605;47.040;15.294;2023-12-20T12:42:44;20.50;47.60
65038;DHT22;51605;47.040;15.294;2023-12-20T12:45:10;20.50;47.60
65038;DHT22;51605;47.040;15.294;2023-12-20T12:47:39;20.50;47.70
65038;DHT22;51605;47.040;15.294;2023-12-20T12:50:05;20.50;47.60
65038;DHT22;51605;47.040;15.294;2023-12-20T12:52:31;20.50;47.60
65038;DHT22;51605;47.040;15.294;2023-12-20T12:54:57;20.50;47.60
65038;DHT22;51605;47.040;15.294;2023-12-20T12:57:23;20.50;47.60
65038;DHT22;51605;47.040;15.294;2023-12-20T12:59:49;20.50;47.60
65038;DHT22;51605;47.040;15.294;2023-12-20T13:02:15;20.40;47.60
65038;DHT22;51605;47.040;15.294;2023-12-20T13:04:41;20.50;47.60
65038;DHT22;51605;47.040;15.294;2023-12-20T13:07:08;20.50;47.60
65038;DHT22;51605;47.040;15.294;2023-12-20T13:09:36;20.50;47.60
65038;DHT22;51605;47.040;15.294;2023-12-20T13:12:01;20.50;47.60
65038;DHT22;51605;47.040;15.294;2023-12-20T13:14:31;20.50;47.60
65038;DHT22;51605;47.040;15.294;2023-12-20T13:16:57;20.50;47.60
65038;DHT22;51605;47.040;15.294;2023-12-20T13:19:23;20.50;47.60
65038;DHT22;51605;47.040;15.294;2023-12-20T13:21:49;20.50;47.60
65038;DHT22;51605;47.040;15.294;2023-12-20T13:24:15;20.50;47.60
65038;DHT22;51605;47.040;15.294;2023-12-20T13:26:40;20.40;47.60
65038;DHT22;51605;47.040;15.294;2023-12-20T13:29:06;20.50;47.60
65038;DHT22;51605;47.040;15.294;2023-12-20T13:31:32;20.50;47.60
65038;DHT22;51605;47.040;15.294;2023-12-20T13:33:58;20.50;47.60
65038;DHT22;51605;47.040;15.294;2023-12-20T13:36:23;20.50;47.60
65038;DHT22;51605;47.040;15.294;2023-12-20T13:38:49;20.50;47.60
65038;DHT22;51605;47.040;15.294;2023-12-20T13:41:16;20.50;47.60
65038;DHT22;51605;47.040;15.294;2023-12-20T13:43:41;20.50;47.70
65038;DHT22;51605;47.040;15.294;2023-12-20T13:46:08;20.50;47.70
65038;DHT22;51605;47.040;15.294;2023-12-20T13:48:34;20.40;47.60
65038;DHT22;51605;47.040;15.294;2023-12-20T13:51:00;20.40;47.60
65038;DHT22;51605;47.040;15.294;2023-12-20T13:53:28;20.50;47.60
65038;DHT22;51605;47.040;15.294;2023-12-20T13:55:54;20.50;47.70
65038;DHT22;51605;47.040;15.294;2023-12-20T13:58:19;20.50;47.70
65038;DHT22;51605;47.040;15.294;2023-12-20T14:00:45;20.50;47.70
65038;DHT22;51605;47.040;15.294;2023-12-20T14:03:11;20.50;47.70
65038;DHT22;51605;47.040;15.294;2023-12-20T14:05:37;20.50;47.70
65038;DHT22;51605;47.040;15.294;2023-12-20T14:08:03;20.50;47.70
65038;DHT22;51605;47.040;15.294;2023-12-20T14:10:29;20.40;47.80
65038;DHT22;51605;47.040;15.294;2023-12-20T14:12:55;20.50;47.70
65038;DHT22;51605;47.040;15.294;2023-12-20T14:15:21;20.50;47.70
65038;DHT22;51605;47.040;15.294;2023-12-20T14:17:47;20.50;47.70
65038;DHT22;51605;47.040;15.294;2023-12-20T14:20:12;20.50;47.70
65038;DHT22;51605;47.040;15.294;2023-12-20T14:22:38;20.50;47.70
65038;DHT22;51605;47.040;15.294;2023-12-20T14:25:04;20.50;47.60
65038;DHT22;51605;47.040;15.294;2023-12-20T14:27:31;20.50;47.70
65038;DHT22;51605;47.040;15.294;2023-12-20T14:29:57;20.50;47.70
65038;DHT22;51605;47.040;15.294;2023-12-20T14:32:24;20.50;47.70
65038;DHT22;51605;47.040;15.294;2023-12-20T14:34:52;20.40;47.70
65038;DHT22;51605;47.040;15.294;2023-12-20T14:37:17;20.50;47.70
65038;DHT22;51605;47.040;15.294;2023-12-20T14:39:43;20.50;47.70
65038;DHT22;51605;47.040;15.294;2023-12-20T14:42:09;20.50;47.80
65038;DHT22;51605;47.040;15.294;2023-12-20T14:44:40;20.50;47.70
65038;DHT22;51605;47.040;15.294;2023-12-20T14:47:06;20.40;47.70
65038;DHT22;51605;47.040;15.294;2023-12-20T14:49:32;20.40;47.70
65038;DHT22;51605;47.040;15.294;2023-12-20T14:51:58;20.50;47.70
65038;DHT22;51605;47.040;15.294;2023-12-20T14:54:24;20.50;47.70
65038;DHT22;51605;47.040;15.294;2023-12-20T14:56:49;20.50;47.70
65038;DHT22;51605;47.040;15.294;2023-12-20T14:59:15;20.50;48.10
65038;DHT22;51605;47.040;15.294;2023-12-20T15:01:41;20.50;47.70
65038;DHT22;51605;47.040;15.294;2023-12-20T15:04:07;20.50;47.70
65038;DHT22;51605;47.040;15.294;2023-12-20T15:06:33;20.50;47.70
65038;DHT22;51605;47.040;15.294;2023-12-20T15:08:59;20.50;47.70
65038;DHT22;51605;47.040;15.294;2023-12-20T15:11:25;20.50;47.70
65038;DHT22;51605;47.040;15.294;2023-12-20T15:13:52;20.50;47.80
65038;DHT22;51605;47.040;15.294;2023-12-20T15:16:24;20.50;47.80